aviador You're here:

TAPA Decoded Metar

ANTIGUA in LEEWARD ISLANDS
Report Time2017-09-23 21:00:00
UTC Time2017-09-23 21:43:07
Flight Rules vfr VFR
Wind110° at 07 kt
W.Decomp.*RWY 07: 4.4 kt HW 5.4 kt RCW
W.Rank110° ranks 5
Current wind is below 110° avg. (8.6)
Visibility9999 m
Phenomena:N/A
Clouds:Scattered 018 Hf
Expected CloudBase > 1,600 ft AGL from Temp-Dew spread
CeilingNone
Temp29°C (ISA +14)
Dew Point25°C (79% RH)
Heat Index34.5°C
QNH1013 hPa
Density Alt2,080 ft
Elevation46 ft
Report Wrong Elevation
Raw Report
TAPA 232100Z 11007KT 9999 SCT018 29/25 Q1013 NOSIG=

Extra information for TAPA:More info

Metar Taf Metar & Taf Last 4 Metars F.Rules Stats Wind Profile Meteogram Temp Stats Airport Information Weather charts Add Link Nearby VenuesMetar ALERT Operation Metar Decoded Social comments